createdAt,value
2023-04-27T00:00:48.458Z,11.80
2023-04-27T00:03:15.904Z,9.98
2023-04-27T00:05:42.988Z,12.93
2023-04-27T00:08:09.633Z,9.43
2023-04-27T00:10:36.038Z,11.60
2023-04-27T00:13:02.444Z,10.93
2023-04-27T00:15:29.511Z,11.93
2023-04-27T00:17:57.358Z,13.68
2023-04-27T00:20:23.963Z,11.85
2023-04-27T00:22:50.609Z,10.40
2023-04-27T00:25:17.004Z,11.98
2023-04-27T00:27:43.416Z,12.82
2023-04-27T00:30:10.229Z,13.70
2023-04-27T00:32:36.671Z,11.23
2023-04-27T00:35:03.360Z,12.10
2023-04-27T00:37:29.793Z,11.80
2023-04-27T00:39:56.246Z,14.18
2023-04-27T00:42:22.969Z,11.65
2023-04-27T00:44:51.044Z,13.50
2023-04-27T00:47:17.909Z,15.15
2023-04-27T00:49:44.852Z,10.45
2023-04-27T00:52:11.658Z,11.02
2023-04-27T00:54:38.330Z,12.88
2023-04-27T00:57:05.134Z,12.90
2023-04-27T00:59:32.117Z,11.90
2023-04-27T01:01:59.392Z,11.68
2023-04-27T01:04:26.857Z,14.32
2023-04-27T01:06:54.706Z,12.77
2023-04-27T01:09:21.371Z,11.55
2023-04-27T01:11:49.720Z,15.10
2023-04-27T01:14:17.170Z,10.40
2023-04-27T01:16:44.330Z,13.15
2023-04-27T01:19:11.023Z,12.00
2023-04-27T01:21:37.963Z,12.55
2023-04-27T01:24:06.246Z,13.50
2023-04-27T01:26:33.581Z,13.70
2023-04-27T01:29:00.188Z,13.15
2023-04-27T01:31:27.225Z,14.35
2023-04-27T01:33:53.667Z,13.80
2023-04-27T01:36:20.100Z,11.65
2023-04-27T01:38:48.118Z,12.23
2023-04-27T01:41:14.773Z,14.05
2023-04-27T01:43:43.541Z,14.57
2023-04-27T01:46:13.079Z,14.80
2023-04-27T01:48:41.724Z,13.73
2023-04-27T01:51:08.179Z,13.68
2023-04-27T01:53:34.683Z,13.07
2023-04-27T01:56:01.422Z,14.48
2023-04-27T01:58:28.341Z,15.45
2023-04-27T02:00:54.986Z,16.17
2023-04-27T02:03:22.008Z,12.73
2023-04-27T02:05:50.352Z,15.70
2023-04-27T02:08:17.124Z,13.30
2023-04-27T02:10:44.641Z,17.23
2023-04-27T02:13:11.131Z,16.30
2023-04-27T02:15:37.679Z,15.45
2023-04-27T02:18:04.603Z,13.27
2023-04-27T02:20:32.035Z,13.40
2023-04-27T02:23:00.937Z,12.98
2023-04-27T02:25:27.538Z,12.90
2023-04-27T02:27:54.594Z,16.45
2023-04-27T02:30:21.666Z,15.02
2023-04-27T02:32:48.602Z,14.73
2023-04-27T02:35:16.006Z,13.40
2023-04-27T02:37:42.494Z,13.60
2023-04-27T02:40:09.764Z,13.68
2023-04-27T02:42:38.359Z,14.27
2023-04-27T02:45:07.123Z,13.75
2023-04-27T02:47:33.916Z,15.27
2023-04-27T02:50:01.141Z,14.45
2023-04-27T02:52:27.813Z,13.63
2023-04-27T02:54:54.357Z,14.07
2023-04-27T02:57:20.965Z,14.00
2023-04-27T02:59:47.931Z,13.88
2023-04-27T03:02:14.502Z,16.08
2023-04-27T03:04:40.973Z,15.82
2023-04-27T03:07:07.684Z,17.25
2023-04-27T03:09:34.474Z,16.38
2023-04-27T03:12:01.221Z,14.45
2023-04-27T03:14:27.647Z,17.17
2023-04-27T03:16:56.043Z,15.23
2023-04-27T03:19:22.618Z,12.18
2023-04-27T03:21:50.223Z,17.35
2023-04-27T03:24:17.151Z,15.68
2023-04-27T03:26:44.145Z,14.90
2023-04-27T03:29:10.612Z,14.13
2023-04-27T03:31:37.537Z,17.17
2023-04-27T03:34:04.060Z,14.75
2023-04-27T03:36:32.139Z,18.17
2023-04-27T03:38:58.636Z,15.82
2023-04-27T03:41:25.531Z,17.45
2023-04-27T03:43:53.316Z,18.17
2023-04-27T03:46:19.963Z,16.20
2023-04-27T03:48:47.270Z,15.45
2023-04-27T03:51:14.916Z,14.40
2023-04-27T03:53:43.230Z,17.67
2023-04-27T03:56:09.686Z,14.30
2023-04-27T03:58:36.956Z,16.50
2023-04-27T04:01:26.188Z,14.05
2023-04-27T04:03:53.604Z,16.58
2023-04-27T04:06:20.620Z,17.48
2023-04-27T04:08:47.715Z,17.38
2023-04-27T04:11:14.295Z,15.00
2023-04-27T04:13:42.050Z,16.48
2023-04-27T04:16:09.747Z,20.00
2023-04-27T04:18:37.161Z,17.17
2023-04-27T04:21:05.021Z,17.88
2023-04-27T04:23:32.780Z,17.45
2023-04-27T04:25:59.911Z,16.05
2023-04-27T04:28:30.890Z,15.55
2023-04-27T04:30:57.461Z,14.70
2023-04-27T04:33:24.274Z,19.63
2023-04-27T04:35:51.832Z,19.90
2023-04-27T04:38:18.665Z,18.98
2023-04-27T04:40:46.147Z,16.83
2023-04-27T04:43:13.197Z,17.55
2023-04-27T04:45:40.077Z,18.33
2023-04-27T04:48:06.590Z,20.40
2023-04-27T04:50:34.610Z,20.52
2023-04-27T04:53:01.438Z,19.25
2023-04-27T04:55:28.350Z,18.30
2023-04-27T04:57:54.935Z,21.25
2023-04-27T05:00:22.348Z,18.58
2023-04-27T05:02:48.884Z,21.23
2023-04-27T05:05:15.907Z,22.95
2023-04-27T05:07:42.965Z,22.33
2023-04-27T05:10:09.527Z,24.95
2023-04-27T05:12:35.954Z,23.20
2023-04-27T05:15:02.454Z,22.52
2023-04-27T05:17:28.926Z,19.30
2023-04-27T05:19:55.403Z,26.77
2023-04-27T05:22:22.363Z,23.35
2023-04-27T05:24:48.832Z,25.23
2023-04-27T05:27:15.243Z,27.27
2023-04-27T05:29:42.274Z,23.83
2023-04-27T05:32:09.435Z,24.27
2023-04-27T05:34:36.735Z,23.60
2023-04-27T05:37:03.403Z,27.13
2023-04-27T05:39:29.886Z,27.85
2023-04-27T05:41:57.342Z,26.23
2023-04-27T05:44:28.190Z,26.13
2023-04-27T05:46:56.247Z,21.83
2023-04-27T05:49:23.418Z,24.35
2023-04-27T05:51:50.054Z,21.48
2023-04-27T05:54:16.455Z,19.23
2023-04-27T05:56:42.914Z,18.90
2023-04-27T05:59:09.852Z,20.80
2023-04-27T06:01:36.760Z,15.15
2023-04-27T06:04:03.862Z,15.93
2023-04-27T06:06:35.251Z,16.02
2023-04-27T06:09:01.732Z,15.45
2023-04-27T06:11:28.513Z,15.80
2023-04-27T06:13:54.947Z,17.75
2023-04-27T06:16:21.536Z,17.65
2023-04-27T06:18:50.456Z,16.48
2023-04-27T06:21:17.294Z,13.75
2023-04-27T06:23:44.062Z,13.65
2023-04-27T06:26:10.484Z,12.80
2023-04-27T06:28:36.860Z,11.65
2023-04-27T06:31:03.484Z,11.98
2023-04-27T06:33:29.877Z,14.57
2023-04-27T06:35:56.258Z,11.35
2023-04-27T06:38:22.643Z,10.43
2023-04-27T06:40:53.151Z,9.20
2023-04-27T06:43:19.723Z,13.65
2023-04-27T06:45:46.387Z,12.80
2023-04-27T06:48:12.935Z,10.50
2023-04-27T06:50:39.679Z,9.95
2023-04-27T06:53:06.189Z,8.27
2023-04-27T06:55:32.791Z,10.20
2023-04-27T06:57:59.185Z,11.55
2023-04-27T07:00:27.200Z,12.07
2023-04-27T07:02:53.756Z,12.30
2023-04-27T07:05:20.417Z,12.52
2023-04-27T07:07:46.815Z,8.48
2023-04-27T07:10:13.212Z,16.63
2023-04-27T07:12:40.751Z,14.05
2023-04-27T07:15:07.921Z,10.32
2023-04-27T07:17:34.564Z,11.52
2023-04-27T07:20:01.892Z,10.75
2023-04-27T07:22:28.818Z,11.50
2023-04-27T07:24:55.260Z,12.60
2023-04-27T07:27:22.148Z,10.88
2023-04-27T07:29:48.553Z,11.73
2023-04-27T07:32:15.147Z,9.25
2023-04-27T07:34:52.505Z,10.48
2023-04-27T07:37:20.377Z,10.07
2023-04-27T07:39:47.266Z,13.65
2023-04-27T07:42:13.699Z,10.15
2023-04-27T07:44:40.761Z,14.63
2023-04-27T07:47:07.278Z,9.27
2023-04-27T07:49:34.976Z,9.88
2023-04-27T07:52:01.683Z,11.38
2023-04-27T07:54:28.094Z,12.07
2023-04-27T07:56:54.730Z,7.78
2023-04-27T07:59:21.410Z,9.32
2023-04-27T08:01:48.048Z,12.30
2023-04-27T08:04:16.008Z,9.15
2023-04-27T08:06:43.180Z,11.07
2023-04-27T08:09:09.932Z,8.80
2023-04-27T08:11:36.679Z,10.25
2023-04-27T08:14:03.191Z,9.20
2023-04-27T08:16:29.705Z,8.48
2023-04-27T08:18:57.556Z,8.60
2023-04-27T08:21:25.067Z,8.18
2023-04-27T08:23:51.599Z,27.73
2023-04-27T08:26:18.214Z,9.27
2023-04-27T08:28:44.575Z,7.93
2023-04-27T08:31:11.274Z,8.93
2023-04-27T08:33:38.040Z,12.82
2023-04-27T08:36:04.990Z,9.05
2023-04-27T08:38:33.385Z,6.75
2023-04-27T08:41:07.522Z,6.40
2023-04-27T08:43:44.950Z,8.93
2023-04-27T08:46:11.560Z,8.05
2023-04-27T08:48:37.936Z,8.82
2023-04-27T08:51:11.159Z,9.70
2023-04-27T08:53:37.521Z,8.82
2023-04-27T08:56:04.867Z,7.47
2023-04-27T08:58:39.188Z,5.15
2023-04-27T09:01:09.175Z,5.40
2023-04-27T09:03:37.059Z,6.07
2023-04-27T09:06:05.986Z,4.97
2023-04-27T09:08:47.131Z,4.18
2023-04-27T09:11:31.272Z,7.65
2023-04-27T09:13:59.635Z,5.50
2023-04-27T09:16:29.008Z,7.97
2023-04-27T09:18:57.341Z,10.23
2023-04-27T09:21:28.571Z,42.25
2023-04-27T09:23:56.369Z,9.55
2023-04-27T09:26:24.819Z,5.93
2023-04-27T09:28:54.453Z,6.10
2023-04-27T09:31:21.107Z,7.65
2023-04-27T09:33:55.819Z,5.95
2023-04-27T09:36:23.144Z,8.13
2023-04-27T09:38:51.631Z,7.15
2023-04-27T09:41:18.949Z,6.43
2023-04-27T09:43:47.153Z,6.70
2023-04-27T09:46:14.829Z,4.32
2023-04-27T09:48:41.862Z,7.13
2023-04-27T09:51:08.931Z,4.05
2023-04-27T09:53:52.781Z,6.38
2023-04-27T09:56:46.382Z,6.05
2023-04-27T09:59:28.055Z,6.13
2023-04-27T10:01:56.802Z,7.82
2023-04-27T10:04:29.273Z,6.32
2023-04-27T10:07:01.128Z,7.47
2023-04-27T10:09:49.308Z,9.43
2023-04-27T10:12:23.509Z,7.88
2023-04-27T10:14:57.289Z,5.47
2023-04-27T10:17:26.764Z,7.38
2023-04-27T10:20:02.066Z,6.05
2023-04-27T10:22:58.182Z,6.30
2023-04-27T10:25:40.048Z,4.35
2023-04-27T10:28:08.092Z,5.13
2023-04-27T10:30:36.814Z,5.80
2023-04-27T10:33:10.904Z,5.25
2023-04-27T10:35:38.482Z,5.60
2023-04-27T10:38:21.779Z,5.30
2023-04-27T10:41:01.870Z,7.07
2023-04-27T10:43:30.606Z,5.90
2023-04-27T10:46:13.968Z,8.48
2023-04-27T10:48:42.263Z,7.80
2023-04-27T10:51:09.268Z,5.28
2023-04-27T10:53:37.283Z,4.15
2023-04-27T10:56:06.776Z,6.55
2023-04-27T10:58:45.245Z,6.40
2023-04-27T11:01:23.992Z,7.60
2023-04-27T11:03:55.700Z,3.08
2023-04-27T11:06:22.122Z,4.20
2023-04-27T11:08:49.110Z,6.90
2023-04-27T11:11:17.229Z,8.77
2023-04-27T11:13:44.727Z,6.88
2023-04-27T11:16:11.233Z,7.57
2023-04-27T11:18:38.162Z,4.85
2023-04-27T11:21:07.668Z,6.55
2023-04-27T11:23:39.095Z,7.32
2023-04-27T11:26:11.398Z,5.07
2023-04-27T11:28:38.378Z,6.75
2023-04-27T11:31:05.168Z,4.72
2023-04-27T11:33:31.779Z,4.68
2023-04-27T11:35:58.871Z,8.63
2023-04-27T11:38:26.414Z,6.18
2023-04-27T11:41:07.338Z,7.28
2023-04-27T11:43:34.540Z,5.55
2023-04-27T11:46:05.811Z,4.35
2023-04-27T11:48:32.261Z,4.93
2023-04-27T11:51:01.931Z,5.88
2023-04-27T11:53:39.568Z,6.90
2023-04-27T11:56:10.857Z,6.75
2023-04-27T11:58:39.023Z,6.40
2023-04-27T12:01:07.771Z,4.97
2023-04-27T12:03:34.979Z,7.70
2023-04-27T12:08:31.311Z,6.43
2023-04-27T12:10:57.722Z,5.05
2023-04-27T12:13:24.155Z,4.45
2023-04-27T12:15:50.557Z,4.95
2023-04-27T12:18:16.915Z,6.22
2023-04-27T12:20:43.575Z,5.45
2023-04-27T12:23:10.278Z,8.60
2023-04-27T12:25:37.520Z,6.45
2023-04-27T12:28:04.202Z,5.25
2023-04-27T12:30:31.749Z,5.65
2023-04-27T12:33:00.218Z,4.70
2023-04-27T12:35:26.769Z,5.85
2023-04-27T12:37:53.229Z,7.85
2023-04-27T12:40:19.680Z,5.68
2023-04-27T12:42:46.131Z,6.93
2023-04-27T12:45:12.661Z,6.90
2023-04-27T12:47:58.093Z,5.50
2023-04-27T12:50:26.836Z,5.93
2023-04-27T12:52:53.457Z,6.90
2023-04-27T12:55:32.139Z,6.70
2023-04-27T12:58:00.929Z,4.82
2023-04-27T13:00:27.725Z,4.90
2023-04-27T13:02:54.315Z,7.15
2023-04-27T13:05:21.958Z,6.30
2023-04-27T13:07:48.487Z,5.03
2023-04-27T13:10:15.202Z,5.00
2023-04-27T13:12:41.688Z,7.03
2023-04-27T13:15:09.058Z,6.00
2023-04-27T13:17:35.486Z,5.88
2023-04-27T13:20:01.992Z,7.90
2023-04-27T13:22:28.792Z,8.25
2023-04-27T13:24:55.462Z,5.55
2023-04-27T13:27:24.981Z,5.53
2023-04-27T13:29:51.383Z,6.85
2023-04-27T13:32:18.517Z,6.80
2023-04-27T13:34:45.013Z,6.03
2023-04-27T13:37:11.403Z,4.95
2023-04-27T13:39:37.957Z,5.15
2023-04-27T13:42:04.622Z,4.68
2023-04-27T13:44:31.681Z,6.40
2023-04-27T13:46:58.409Z,5.55
2023-04-27T13:49:25.762Z,5.57
2023-04-27T13:51:52.171Z,5.22
2023-04-27T13:54:18.564Z,5.65
2023-04-27T13:56:44.942Z,5.90
2023-04-27T13:59:11.674Z,4.88
2023-04-27T14:01:39.847Z,4.80
2023-04-27T14:04:07.335Z,5.38
2023-04-27T14:06:33.982Z,5.65
2023-04-27T14:09:00.367Z,7.03
2023-04-27T14:11:26.957Z,4.97
2023-04-27T14:13:53.800Z,5.80
2023-04-27T14:16:20.833Z,5.55
2023-04-27T14:18:47.646Z,6.88
2023-04-27T14:21:14.073Z,4.80
2023-04-27T14:23:40.864Z,5.53
2023-04-27T14:26:07.527Z,5.95
2023-04-27T14:28:34.523Z,6.43
2023-04-27T14:31:00.895Z,6.68
2023-04-27T14:33:27.352Z,6.57
2023-04-27T14:35:54.101Z,5.05
2023-04-27T14:38:20.664Z,7.75
2023-04-27T14:40:47.421Z,7.38
2023-04-27T14:43:14.071Z,5.32
2023-04-27T14:45:50.824Z,5.18
2023-04-27T14:48:20.915Z,5.93
2023-04-27T14:50:47.937Z,7.20
2023-04-27T14:53:14.322Z,9.10
2023-04-27T14:55:41.580Z,6.45
2023-04-27T14:58:08.018Z,5.05
2023-04-27T15:00:56.429Z,5.63
2023-04-27T15:03:23.403Z,5.47
2023-04-27T15:05:49.980Z,7.00
2023-04-27T15:08:16.425Z,7.35
2023-04-27T15:10:43.022Z,6.65
2023-04-27T15:13:09.501Z,6.00
2023-04-27T15:15:36.029Z,5.75
2023-04-27T15:18:02.989Z,6.25
2023-04-27T15:20:29.806Z,10.30
2023-04-27T15:22:56.230Z,9.05
2023-04-27T15:25:22.761Z,9.07
2023-04-27T15:27:49.608Z,6.15
2023-04-27T15:30:16.264Z,8.15
2023-04-27T15:32:42.702Z,7.07
2023-04-27T15:35:09.571Z,6.53
2023-04-27T15:37:36.628Z,9.32
2023-04-27T15:40:04.116Z,5.88
2023-04-27T15:42:30.621Z,7.00
2023-04-27T15:44:57.862Z,5.65
2023-04-27T15:47:24.257Z,8.90
2023-04-27T15:49:57.400Z,9.63
2023-04-27T15:52:26.299Z,5.47
2023-04-27T15:54:52.818Z,6.38
2023-04-27T15:57:19.320Z,7.85
2023-04-27T15:59:45.876Z,5.35
2023-04-27T16:02:13.321Z,9.20
2023-04-27T16:04:39.847Z,9.27
2023-04-27T16:07:07.242Z,8.98
2023-04-27T16:09:33.911Z,8.90
2023-04-27T16:12:01.393Z,5.38
2023-04-27T16:14:27.820Z,6.97
2023-04-27T16:16:56.019Z,6.88
2023-04-27T16:19:23.477Z,7.38
2023-04-27T16:21:49.848Z,7.32
2023-04-27T16:24:16.287Z,7.53
2023-04-27T16:26:42.715Z,9.43
2023-04-27T16:29:09.128Z,8.43
2023-04-27T16:31:35.647Z,5.50
2023-04-27T16:34:03.034Z,6.85
2023-04-27T16:36:30.284Z,6.03
2023-04-27T16:38:57.131Z,8.57
2023-04-27T16:41:24.295Z,6.38
2023-04-27T16:43:51.178Z,11.40
2023-04-27T16:46:17.607Z,8.77
2023-04-27T16:48:44.422Z,6.15
2023-04-27T16:51:10.819Z,8.18
2023-04-27T16:53:37.314Z,6.45
2023-04-27T16:56:04.003Z,7.93
2023-04-27T16:58:30.784Z,9.40
2023-04-27T17:00:57.928Z,8.55
2023-04-27T17:03:25.051Z,8.18
2023-04-27T17:05:52.238Z,8.38
2023-04-27T17:08:18.624Z,8.63
2023-04-27T17:10:45.344Z,5.95
2023-04-27T17:13:14.561Z,6.78
2023-04-27T17:15:41.379Z,6.47
2023-04-27T17:18:09.649Z,6.50
2023-04-27T17:20:36.617Z,7.35
2023-04-27T17:23:03.061Z,8.10
2023-04-27T17:25:29.455Z,7.70
2023-04-27T17:27:55.822Z,7.30
2023-04-27T17:30:22.313Z,9.18
2023-04-27T17:32:48.758Z,9.18
2023-04-27T17:35:15.839Z,5.72
2023-04-27T17:37:42.277Z,8.50
2023-04-27T17:40:09.243Z,8.45
2023-04-27T17:42:35.965Z,6.30
2023-04-27T17:45:03.139Z,7.82
2023-04-27T17:47:29.611Z,9.75
2023-04-27T17:49:56.121Z,8.55
2023-04-27T17:52:22.489Z,9.75
2023-04-27T17:54:48.943Z,7.15
2023-04-27T17:57:15.298Z,7.68
2023-04-27T17:59:42.401Z,11.68
2023-04-27T18:02:08.919Z,8.38
2023-04-27T18:04:35.533Z,11.02
2023-04-27T18:07:02.087Z,9.93
2023-04-27T18:09:30.663Z,9.32
2023-04-27T18:11:59.024Z,8.65
2023-04-27T18:14:26.124Z,9.30
2023-04-27T18:16:52.614Z,7.50
2023-04-27T18:19:19.284Z,6.88
2023-04-27T18:21:46.166Z,9.13
2023-04-27T18:24:12.647Z,10.98
2023-04-27T18:26:39.045Z,8.45
2023-04-27T18:29:05.408Z,9.13
2023-04-27T18:31:31.967Z,8.30
2023-04-27T18:33:59.225Z,7.93
2023-04-27T18:36:27.429Z,7.55
2023-04-27T18:38:55.031Z,7.43
2023-04-27T18:41:21.482Z,8.55
2023-04-27T18:43:47.928Z,8.38
2023-04-27T18:46:14.451Z,6.55
2023-04-27T18:48:41.173Z,7.75
2023-04-27T18:51:07.564Z,8.30
2023-04-27T18:53:34.408Z,7.70
2023-04-27T18:56:02.041Z,10.15
2023-04-27T18:58:28.848Z,8.82
2023-04-27T19:00:55.332Z,10.38
2023-04-27T19:03:21.852Z,8.27
2023-04-27T19:05:48.632Z,10.13
2023-04-27T19:08:15.018Z,8.57
2023-04-27T19:10:41.624Z,8.27
2023-04-27T19:13:08.091Z,9.75
2023-04-27T19:15:34.618Z,7.90
2023-04-27T19:18:09.932Z,7.82
2023-04-27T19:20:38.381Z,10.52
2023-04-27T19:23:05.185Z,9.40
2023-04-27T19:25:31.656Z,10.43
2023-04-27T19:27:58.554Z,9.20
2023-04-27T19:30:25.204Z,10.15
2023-04-27T19:32:52.139Z,10.50
2023-04-27T19:35:20.130Z,10.93
2023-04-27T19:37:46.593Z,7.47
2023-04-27T19:40:13.099Z,8.20
2023-04-27T19:42:39.506Z,7.90
2023-04-27T19:45:06.835Z,8.02
2023-04-27T19:47:33.288Z,8.38
2023-04-27T19:49:59.728Z,11.98
2023-04-27T19:52:26.399Z,9.77
2023-04-27T19:54:53.881Z,8.15
2023-04-27T19:57:21.622Z,11.98
2023-04-27T19:59:48.087Z,9.05
2023-04-27T20:02:15.430Z,8.60
2023-04-27T20:04:42.123Z,8.48
2023-04-27T20:07:08.807Z,11.40
2023-04-27T20:09:35.525Z,11.40
2023-04-27T20:12:02.032Z,11.15
2023-04-27T20:14:29.933Z,8.60
2023-04-27T20:16:56.435Z,9.90
2023-04-27T20:19:25.002Z,10.30
2023-04-27T20:21:51.458Z,8.75
2023-04-27T20:24:17.977Z,10.93
2023-04-27T20:26:44.552Z,8.13
2023-04-27T20:29:11.166Z,11.65
2023-04-27T20:31:37.602Z,11.23
2023-04-27T20:34:04.389Z,8.90
2023-04-27T20:36:32.192Z,11.27
2023-04-27T20:39:00.906Z,9.95
2023-04-27T20:41:28.090Z,9.13
2023-04-27T20:43:55.248Z,10.70
2023-04-27T20:46:21.743Z,11.88
2023-04-27T20:48:48.385Z,8.45
2023-04-27T20:51:14.760Z,6.78
2023-04-27T20:53:41.248Z,10.70
2023-04-27T20:56:07.727Z,8.52
2023-04-27T20:58:34.649Z,8.77
2023-04-27T21:01:01.078Z,8.38
2023-04-27T21:03:27.667Z,10.63
2023-04-27T21:05:54.422Z,9.43
2023-04-27T21:08:20.992Z,7.55
2023-04-27T21:10:47.407Z,10.45
2023-04-27T21:13:13.932Z,10.07
2023-04-27T21:15:40.367Z,11.38
2023-04-27T21:18:13.498Z,9.68
2023-04-27T21:20:45.537Z,6.65
2023-04-27T21:23:14.511Z,9.27
2023-04-27T21:25:44.861Z,8.27
2023-04-27T21:28:12.125Z,8.02
2023-04-27T21:30:38.935Z,9.85
2023-04-27T21:33:06.006Z,7.93
2023-04-27T21:35:32.510Z,7.05
2023-04-27T21:37:59.393Z,11.10
2023-04-27T21:40:26.070Z,9.73
2023-04-27T21:42:53.730Z,9.55
2023-04-27T21:45:20.910Z,8.00
2023-04-27T21:47:47.644Z,8.05
2023-04-27T21:50:14.254Z,8.05
2023-04-27T21:52:40.860Z,9.95
2023-04-27T21:55:07.931Z,8.20
2023-04-27T21:57:34.448Z,11.18
2023-04-27T22:00:01.005Z,8.80
2023-04-27T22:02:29.413Z,8.23
2023-04-27T22:04:56.479Z,9.57
2023-04-27T22:07:24.517Z,7.13
2023-04-27T22:09:50.945Z,9.45
2023-04-27T22:12:17.351Z,7.70
2023-04-27T22:14:44.006Z,11.57
2023-04-27T22:17:12.431Z,7.25
2023-04-27T22:19:38.826Z,6.97
2023-04-27T22:22:05.343Z,9.80
2023-04-27T22:24:31.720Z,10.02
2023-04-27T22:26:58.190Z,7.05
2023-04-27T22:29:24.620Z,10.50
2023-04-27T22:31:52.303Z,13.00
2023-04-27T22:34:18.802Z,10.43
2023-04-27T22:36:45.373Z,10.73
2023-04-27T22:39:12.220Z,9.15
2023-04-27T22:41:38.608Z,10.98
2023-04-27T22:44:05.741Z,10.45
2023-04-27T22:46:32.636Z,11.00
2023-04-27T22:49:01.318Z,10.40
2023-04-27T22:51:27.885Z,9.20
2023-04-27T22:53:54.587Z,11.23
2023-04-27T22:56:21.090Z,12.05
2023-04-27T22:58:47.536Z,9.85
2023-04-27T23:01:14.005Z,11.57
2023-04-27T23:03:40.569Z,11.15
2023-04-27T23:06:12.100Z,11.07
2023-04-27T23:08:41.782Z,11.63
2023-04-27T23:11:09.072Z,11.18
2023-04-27T23:13:35.471Z,10.35
2023-04-27T23:16:01.855Z,14.68
2023-04-27T23:18:28.798Z,12.85
2023-04-27T23:20:55.204Z,10.45
2023-04-27T23:23:21.773Z,11.00
2023-04-27T23:25:48.187Z,16.50
2023-04-27T23:28:14.700Z,11.02
2023-04-27T23:30:41.117Z,11.10
2023-04-27T23:33:07.591Z,11.63
2023-04-27T23:35:34.044Z,10.43
2023-04-27T23:38:00.515Z,15.48
2023-04-27T23:40:26.877Z,13.45
2023-04-27T23:42:53.307Z,11.88
2023-04-27T23:45:20.402Z,13.20
2023-04-27T23:47:46.939Z,13.90
2023-04-27T23:50:13.525Z,15.10
2023-04-27T23:52:39.969Z,14.43
2023-04-27T23:55:07.174Z,14.68
2023-04-27T23:57:33.612Z,17.27
